sensor_id;sensor_type;location;lat;lon;timestamp;P1;durP1;ratioP1;P2;durP2;ratioP2
7503;SDS011;3793;48.136;11.536;2024-02-21T00:02:06;4.60;;;2.10;;
7503;SDS011;3793;48.136;11.536;2024-02-21T00:04:33;3.60;;;1.97;;
7503;SDS011;3793;48.136;11.536;2024-02-21T00:07:00;4.97;;;2.20;;
7503;SDS011;3793;48.136;11.536;2024-02-21T00:09:27;5.50;;;2.10;;
7503;SDS011;3793;48.136;11.536;2024-02-21T00:11:54;6.40;;;2.20;;
7503;SDS011;3793;48.136;11.536;2024-02-21T00:14:22;3.33;;;2.20;;
7503;SDS011;3793;48.136;11.536;2024-02-21T00:16:48;4.07;;;2.50;;
7503;SDS011;3793;48.136;11.536;2024-02-21T00:19:15;2.93;;;1.87;;
7503;SDS011;3793;48.136;11.536;2024-02-21T00:21:41;2.70;;;1.90;;
7503;SDS011;3793;48.136;11.536;2024-02-21T00:24:08;2.63;;;2.13;;
7503;SDS011;3793;48.136;11.536;2024-02-21T00:26:35;5.03;;;2.40;;
7503;SDS011;3793;48.136;11.536;2024-02-21T00:29:01;8.60;;;2.23;;
7503;SDS011;3793;48.136;11.536;2024-02-21T00:31:29;3.30;;;2.10;;
7503;SDS011;3793;48.136;11.536;2024-02-21T00:33:56;4.97;;;2.00;;
7503;SDS011;3793;48.136;11.536;2024-02-21T00:36:23;2.97;;;1.97;;
7503;SDS011;3793;48.136;11.536;2024-02-21T00:38:50;5.43;;;1.93;;
7503;SDS011;3793;48.136;11.536;2024-02-21T00:41:16;6.37;;;2.40;;
7503;SDS011;3793;48.136;11.536;2024-02-21T00:43:43;5.27;;;1.87;;
7503;SDS011;3793;48.136;11.536;2024-02-21T00:46:10;7.10;;;2.50;;
7503;SDS011;3793;48.136;11.536;2024-02-21T00:48:38;4.87;;;2.27;;
7503;SDS011;3793;48.136;11.536;2024-02-21T00:51:04;3.23;;;2.10;;
7503;SDS011;3793;48.136;11.536;2024-02-21T00:53:31;5.30;;;2.40;;
7503;SDS011;3793;48.136;11.536;2024-02-21T00:55:58;5.87;;;2.17;;
7503;SDS011;3793;48.136;11.536;2024-02-21T00:58:24;7.27;;;2.70;;
7503;SDS011;3793;48.136;11.536;2024-02-21T01:00:51;4.03;;;1.80;;
7503;SDS011;3793;48.136;11.536;2024-02-21T01:03:18;5.57;;;1.97;;
7503;SDS011;3793;48.136;11.536;2024-02-21T01:05:46;2.50;;;1.73;;
7503;SDS011;3793;48.136;11.536;2024-02-21T01:08:13;3.50;;;2.03;;
7503;SDS011;3793;48.136;11.536;2024-02-21T01:10:39;3.73;;;1.90;;
7503;SDS011;3793;48.136;11.536;2024-02-21T01:13:06;3.13;;;2.00;;
7503;SDS011;3793;48.136;11.536;2024-02-21T01:15:33;4.70;;;1.97;;
7503;SDS011;3793;48.136;11.536;2024-02-21T01:18:00;5.73;;;2.10;;
7503;SDS011;3793;48.136;11.536;2024-02-21T01:20:27;4.67;;;1.93;;
7503;SDS011;3793;48.136;11.536;2024-02-21T01:22:55;5.10;;;1.90;;
7503;SDS011;3793;48.136;11.536;2024-02-21T01:25:21;4.83;;;2.40;;
7503;SDS011;3793;48.136;11.536;2024-02-21T01:27:48;1.80;;;1.67;;
7503;SDS011;3793;48.136;11.536;2024-02-21T01:30:15;6.20;;;2.17;;
7503;SDS011;3793;48.136;11.536;2024-02-21T01:32:41;5.87;;;1.83;;
7503;SDS011;3793;48.136;11.536;2024-02-21T01:35:08;5.27;;;1.90;;
7503;SDS011;3793;48.136;11.536;2024-02-21T01:37:35;4.57;;;1.77;;
7503;SDS011;3793;48.136;11.536;2024-02-21T01:40:03;4.50;;;2.10;;
7503;SDS011;3793;48.136;11.536;2024-02-21T01:42:30;3.00;;;1.70;;
7503;SDS011;3793;48.136;11.536;2024-02-21T01:44:57;4.37;;;1.67;;
7503;SDS011;3793;48.136;11.536;2024-02-21T01:47:24;6.07;;;1.83;;
7503;SDS011;3793;48.136;11.536;2024-02-21T01:49:51;4.70;;;1.67;;
7503;SDS011;3793;48.136;11.536;2024-02-21T01:52:17;2.50;;;1.97;;
7503;SDS011;3793;48.136;11.536;2024-02-21T01:54:44;3.63;;;2.07;;
7503;SDS011;3793;48.136;11.536;2024-02-21T01:57:13;2.63;;;1.87;;
7503;SDS011;3793;48.136;11.536;2024-02-21T01:59:40;3.70;;;1.90;;
7503;SDS011;3793;48.136;11.536;2024-02-21T02:02:07;2.93;;;1.97;;
7503;SDS011;3793;48.136;11.536;2024-02-21T02:04:33;1.93;;;1.60;;
7503;SDS011;3793;48.136;11.536;2024-02-21T02:07:01;3.10;;;1.87;;
7503;SDS011;3793;48.136;11.536;2024-02-21T02:09:28;1.80;;;1.53;;
7503;SDS011;3793;48.136;11.536;2024-02-21T02:11:55;3.57;;;1.70;;
7503;SDS011;3793;48.136;11.536;2024-02-21T02:14:25;4.90;;;2.00;;
7503;SDS011;3793;48.136;11.536;2024-02-21T02:16:51;4.63;;;1.60;;
7503;SDS011;3793;48.136;11.536;2024-02-21T02:19:18;2.20;;;1.30;;
7503;SDS011;3793;48.136;11.536;2024-02-21T02:21:46;3.83;;;1.73;;
7503;SDS011;3793;48.136;11.536;2024-02-21T02:24:14;1.37;;;1.27;;
7503;SDS011;3793;48.136;11.536;2024-02-21T02:26:42;2.10;;;1.50;;
7503;SDS011;3793;48.136;11.536;2024-02-21T02:29:09;3.07;;;1.90;;
7503;SDS011;3793;48.136;11.536;2024-02-21T02:31:35;3.07;;;1.47;;
7503;SDS011;3793;48.136;11.536;2024-02-21T02:34:02;3.00;;;1.37;;
7503;SDS011;3793;48.136;11.536;2024-02-21T02:36:30;2.43;;;1.57;;
7503;SDS011;3793;48.136;11.536;2024-02-21T02:38:56;3.60;;;1.43;;
7503;SDS011;3793;48.136;11.536;2024-02-21T02:41:25;5.77;;;1.60;;
7503;SDS011;3793;48.136;11.536;2024-02-21T02:43:51;2.60;;;1.70;;
7503;SDS011;3793;48.136;11.536;2024-02-21T02:46:18;1.97;;;1.13;;
7503;SDS011;3793;48.136;11.536;2024-02-21T02:48:44;2.67;;;1.57;;
7503;SDS011;3793;48.136;11.536;2024-02-21T02:51:11;3.07;;;1.47;;
7503;SDS011;3793;48.136;11.536;2024-02-21T02:53:38;2.43;;;1.50;;
7503;SDS011;3793;48.136;11.536;2024-02-21T02:56:04;3.53;;;1.50;;
7503;SDS011;3793;48.136;11.536;2024-02-21T02:58:33;3.67;;;1.53;;
7503;SDS011;3793;48.136;11.536;2024-02-21T03:01:00;1.87;;;1.40;;
7503;SDS011;3793;48.136;11.536;2024-02-21T03:03:27;1.60;;;1.40;;
7503;SDS011;3793;48.136;11.536;2024-02-21T03:05:54;1.83;;;1.20;;
7503;SDS011;3793;48.136;11.536;2024-02-21T03:08:21;5.30;;;1.60;;
7503;SDS011;3793;48.136;11.536;2024-02-21T03:10:47;2.80;;;1.50;;
7503;SDS011;3793;48.136;11.536;2024-02-21T03:13:14;2.57;;;1.30;;
7503;SDS011;3793;48.136;11.536;2024-02-21T03:15:42;3.43;;;1.40;;
7503;SDS011;3793;48.136;11.536;2024-02-21T03:18:09;2.50;;;1.87;;
7503;SDS011;3793;48.136;11.536;2024-02-21T03:20:36;2.23;;;1.10;;
7503;SDS011;3793;48.136;11.536;2024-02-21T03:23:02;4.23;;;1.70;;
7503;SDS011;3793;48.136;11.536;2024-02-21T03:25:29;2.73;;;1.07;;
7503;SDS011;3793;48.136;11.536;2024-02-21T03:27:56;1.73;;;1.10;;
7503;SDS011;3793;48.136;11.536;2024-02-21T03:30:22;2.27;;;1.23;;
7503;SDS011;3793;48.136;11.536;2024-02-21T03:32:51;3.07;;;1.40;;
7503;SDS011;3793;48.136;11.536;2024-02-21T03:35:17;2.60;;;1.60;;
7503;SDS011;3793;48.136;11.536;2024-02-21T03:37:44;1.90;;;1.10;;
7503;SDS011;3793;48.136;11.536;2024-02-21T03:40:11;2.10;;;1.00;;
7503;SDS011;3793;48.136;11.536;2024-02-21T03:42:38;3.10;;;1.20;;
7503;SDS011;3793;48.136;11.536;2024-02-21T03:45:05;2.73;;;1.10;;
7503;SDS011;3793;48.136;11.536;2024-02-21T03:47:31;1.33;;;1.07;;
7503;SDS011;3793;48.136;11.536;2024-02-21T03:50:00;2.27;;;1.43;;
7503;SDS011;3793;48.136;11.536;2024-02-21T03:52:26;1.67;;;1.10;;
7503;SDS011;3793;48.136;11.536;2024-02-21T03:54:53;3.00;;;1.20;;
7503;SDS011;3793;48.136;11.536;2024-02-21T03:57:21;2.13;;;1.50;;
7503;SDS011;3793;48.136;11.536;2024-02-21T03:59:49;1.47;;;1.30;;
7503;SDS011;3793;48.136;11.536;2024-02-21T04:02:16;2.90;;;1.10;;
7503;SDS011;3793;48.136;11.536;2024-02-21T04:04:43;2.90;;;1.20;;
7503;SDS011;3793;48.136;11.536;2024-02-21T04:07:12;2.13;;;1.20;;
7503;SDS011;3793;48.136;11.536;2024-02-21T04:09:39;1.57;;;1.27;;
7503;SDS011;3793;48.136;11.536;2024-02-21T04:12:07;2.27;;;1.20;;
7503;SDS011;3793;48.136;11.536;2024-02-21T04:14:34;1.80;;;1.03;;
7503;SDS011;3793;48.136;11.536;2024-02-21T04:17:01;3.37;;;1.43;;
7503;SDS011;3793;48.136;11.536;2024-02-21T04:19:27;2.43;;;1.03;;
7503;SDS011;3793;48.136;11.536;2024-02-21T04:21:56;3.67;;;1.20;;
7503;SDS011;3793;48.136;11.536;2024-02-21T04:24:24;1.97;;;1.37;;
7503;SDS011;3793;48.136;11.536;2024-02-21T04:26:50;2.27;;;1.00;;
7503;SDS011;3793;48.136;11.536;2024-02-21T04:29:17;4.03;;;1.77;;
7503;SDS011;3793;48.136;11.536;2024-02-21T04:31:44;1.33;;;1.20;;
7503;SDS011;3793;48.136;11.536;2024-02-21T04:34:10;2.93;;;1.47;;
7503;SDS011;3793;48.136;11.536;2024-02-21T04:36:37;1.20;;;1.10;;
7503;SDS011;3793;48.136;11.536;2024-02-21T04:39:04;3.30;;;1.10;;
7503;SDS011;3793;48.136;11.536;2024-02-21T04:41:32;2.60;;;1.20;;
7503;SDS011;3793;48.136;11.536;2024-02-21T04:43:58;2.37;;;1.30;;
7503;SDS011;3793;48.136;11.536;2024-02-21T04:46:25;1.23;;;0.83;;
7503;SDS011;3793;48.136;11.536;2024-02-21T04:48:51;3.80;;;1.60;;
7503;SDS011;3793;48.136;11.536;2024-02-21T04:51:18;2.10;;;1.03;;
7503;SDS011;3793;48.136;11.536;2024-02-21T04:53:45;3.43;;;1.20;;
7503;SDS011;3793;48.136;11.536;2024-02-21T04:56:11;2.57;;;1.30;;
7503;SDS011;3793;48.136;11.536;2024-02-21T04:58:40;1.07;;;1.00;;
7503;SDS011;3793;48.136;11.536;2024-02-21T05:01:06;2.10;;;1.37;;
7503;SDS011;3793;48.136;11.536;2024-02-21T05:03:33;1.97;;;1.30;;
7503;SDS011;3793;48.136;11.536;2024-02-21T05:06:00;2.10;;;1.37;;
7503;SDS011;3793;48.136;11.536;2024-02-21T05:08:27;2.80;;;1.67;;
7503;SDS011;3793;48.136;11.536;2024-02-21T05:10:53;4.67;;;1.20;;
7503;SDS011;3793;48.136;11.536;2024-02-21T05:13:20;1.17;;;1.07;;
7503;SDS011;3793;48.136;11.536;2024-02-21T05:15:48;2.37;;;1.03;;
7503;SDS011;3793;48.136;11.536;2024-02-21T05:18:15;1.60;;;0.90;;
7503;SDS011;3793;48.136;11.536;2024-02-21T05:20:42;2.73;;;1.10;;
7503;SDS011;3793;48.136;11.536;2024-02-21T05:23:08;1.63;;;1.20;;
7503;SDS011;3793;48.136;11.536;2024-02-21T05:25:35;4.93;;;1.30;;
7503;SDS011;3793;48.136;11.536;2024-02-21T05:28:02;1.80;;;0.90;;
7503;SDS011;3793;48.136;11.536;2024-02-21T05:30:28;1.57;;;1.00;;
7503;SDS011;3793;48.136;11.536;2024-02-21T05:32:56;1.93;;;1.13;;
7503;SDS011;3793;48.136;11.536;2024-02-21T05:35:26;3.63;;;1.60;;
7503;SDS011;3793;48.136;11.536;2024-02-21T05:37:53;1.63;;;1.30;;
7503;SDS011;3793;48.136;11.536;2024-02-21T05:40:20;3.77;;;1.50;;
7503;SDS011;3793;48.136;11.536;2024-02-21T05:42:47;2.83;;;1.77;;
7503;SDS011;3793;48.136;11.536;2024-02-21T05:45:13;2.30;;;1.30;;
7503;SDS011;3793;48.136;11.536;2024-02-21T05:47:40;3.53;;;1.00;;
7503;SDS011;3793;48.136;11.536;2024-02-21T05:50:09;1.80;;;1.20;;
7503;SDS011;3793;48.136;11.536;2024-02-21T05:52:36;2.23;;;1.50;;
7503;SDS011;3793;48.136;11.536;2024-02-21T05:55:03;2.23;;;1.60;;
7503;SDS011;3793;48.136;11.536;2024-02-21T05:57:30;2.30;;;1.60;;
7503;SDS011;3793;48.136;11.536;2024-02-21T05:59:56;5.10;;;1.47;;
7503;SDS011;3793;48.136;11.536;2024-02-21T06:02:23;4.67;;;1.60;;
7503;SDS011;3793;48.136;11.536;2024-02-21T06:04:49;2.60;;;1.77;;
7503;SDS011;3793;48.136;11.536;2024-02-21T06:07:18;3.40;;;1.60;;
7503;SDS011;3793;48.136;11.536;2024-02-21T06:09:44;1.90;;;1.30;;
7503;SDS011;3793;48.136;11.536;2024-02-21T06:12:11;3.07;;;1.50;;
7503;SDS011;3793;48.136;11.536;2024-02-21T06:14:38;2.50;;;1.37;;
7503;SDS011;3793;48.136;11.536;2024-02-21T06:17:05;1.07;;;1.00;;
7503;SDS011;3793;48.136;11.536;2024-02-21T06:19:31;2.03;;;1.30;;
7503;SDS011;3793;48.136;11.536;2024-02-21T06:21:58;3.23;;;1.70;;
7503;SDS011;3793;48.136;11.536;2024-02-21T06:24:26;2.60;;;1.37;;
7503;SDS011;3793;48.136;11.536;2024-02-21T06:26:53;1.40;;;1.30;;
7503;SDS011;3793;48.136;11.536;2024-02-21T06:29:19;2.63;;;1.60;;
7503;SDS011;3793;48.136;11.536;2024-02-21T06:31:46;4.17;;;1.23;;
7503;SDS011;3793;48.136;11.536;2024-02-21T06:34:13;1.50;;;1.30;;
7503;SDS011;3793;48.136;11.536;2024-02-21T06:36:39;1.80;;;1.37;;
7503;SDS011;3793;48.136;11.536;2024-02-21T06:39:06;1.20;;;1.10;;
7503;SDS011;3793;48.136;11.536;2024-02-21T06:41:35;2.50;;;1.57;;
7503;SDS011;3793;48.136;11.536;2024-02-21T06:44:02;1.80;;;1.30;;
7503;SDS011;3793;48.136;11.536;2024-02-21T06:46:29;1.47;;;1.37;;
7503;SDS011;3793;48.136;11.536;2024-02-21T06:48:57;1.53;;;1.17;;
7503;SDS011;3793;48.136;11.536;2024-02-21T06:51:25;5.90;;;1.33;;
7503;SDS011;3793;48.136;11.536;2024-02-21T06:53:52;4.13;;;1.40;;
7503;SDS011;3793;48.136;11.536;2024-02-21T06:56:18;3.40;;;1.63;;
7503;SDS011;3793;48.136;11.536;2024-02-21T06:58:47;3.33;;;1.40;;
7503;SDS011;3793;48.136;11.536;2024-02-21T07:01:13;2.17;;;1.50;;
7503;SDS011;3793;48.136;11.536;2024-02-21T07:03:40;2.40;;;1.40;;
7503;SDS011;3793;48.136;11.536;2024-02-21T07:06:07;3.60;;;1.67;;
7503;SDS011;3793;48.136;11.536;2024-02-21T07:08:33;2.60;;;1.50;;
7503;SDS011;3793;48.136;11.536;2024-02-21T07:11:00;3.20;;;1.63;;
7503;SDS011;3793;48.136;11.536;2024-02-21T07:13:27;4.43;;;1.47;;
7503;SDS011;3793;48.136;11.536;2024-02-21T07:15:56;1.40;;;1.20;;
7503;SDS011;3793;48.136;11.536;2024-02-21T07:18:23;3.70;;;1.57;;
7503;SDS011;3793;48.136;11.536;2024-02-21T07:20:50;4.73;;;1.33;;
7503;SDS011;3793;48.136;11.536;2024-02-21T07:23:17;3.80;;;1.30;;
7503;SDS011;3793;48.136;11.536;2024-02-21T07:25:43;6.00;;;1.73;;
7503;SDS011;3793;48.136;11.536;2024-02-21T07:28:10;3.00;;;1.20;;
7503;SDS011;3793;48.136;11.536;2024-02-21T07:30:38;5.33;;;1.40;;
7503;SDS011;3793;48.136;11.536;2024-02-21T07:33:06;2.60;;;1.43;;
7503;SDS011;3793;48.136;11.536;2024-02-21T07:35:33;3.47;;;1.67;;
7503;SDS011;3793;48.136;11.536;2024-02-21T07:38:00;2.27;;;1.33;;
7503;SDS011;3793;48.136;11.536;2024-02-21T07:40:28;1.57;;;1.20;;
7503;SDS011;3793;48.136;11.536;2024-02-21T07:42:55;2.03;;;1.30;;
7503;SDS011;3793;48.136;11.536;2024-02-21T07:45:21;1.73;;;1.40;;
7503;SDS011;3793;48.136;11.536;2024-02-21T07:47:49;1.97;;;1.40;;
7503;SDS011;3793;48.136;11.536;2024-02-21T07:50:17;1.60;;;1.20;;
7503;SDS011;3793;48.136;11.536;2024-02-21T07:52:44;1.93;;;1.13;;
7503;SDS011;3793;48.136;11.536;2024-02-21T07:55:11;1.37;;;1.23;;
7503;SDS011;3793;48.136;11.536;2024-02-21T07:57:38;1.30;;;1.20;;
7503;SDS011;3793;48.136;11.536;2024-02-21T08:00:05;2.27;;;1.30;;
7503;SDS011;3793;48.136;11.536;2024-02-21T08:02:34;2.90;;;1.07;;
7503;SDS011;3793;48.136;11.536;2024-02-21T08:05:02;1.63;;;1.17;;
7503;SDS011;3793;48.136;11.536;2024-02-21T08:07:30;3.53;;;1.60;;
7503;SDS011;3793;48.136;11.536;2024-02-21T08:09:59;4.10;;;1.47;;
7503;SDS011;3793;48.136;11.536;2024-02-21T08:12:26;3.87;;;1.30;;
7503;SDS011;3793;48.136;11.536;2024-02-21T08:14:53;1.57;;;0.97;;
7503;SDS011;3793;48.136;11.536;2024-02-21T08:17:20;3.33;;;1.10;;
7503;SDS011;3793;48.136;11.536;2024-02-21T08:19:46;2.37;;;1.33;;
7503;SDS011;3793;48.136;11.536;2024-02-21T08:22:14;1.10;;;1.00;;
7503;SDS011;3793;48.136;11.536;2024-02-21T08:24:42;1.70;;;0.97;;
7503;SDS011;3793;48.136;11.536;2024-02-21T08:27:09;2.07;;;1.10;;
7503;SDS011;3793;48.136;11.536;2024-02-21T08:29:35;5.07;;;1.20;;
7503;SDS011;3793;48.136;11.536;2024-02-21T08:32:02;1.20;;;1.10;;
7503;SDS011;3793;48.136;11.536;2024-02-21T08:34:29;3.07;;;1.77;;
7503;SDS011;3793;48.136;11.536;2024-02-21T08:36:59;1.70;;;1.27;;
7503;SDS011;3793;48.136;11.536;2024-02-21T08:39:26;2.00;;;1.10;;
7503;SDS011;3793;48.136;11.536;2024-02-21T08:41:55;4.40;;;1.57;;
7503;SDS011;3793;48.136;11.536;2024-02-21T08:44:22;1.30;;;0.93;;
7503;SDS011;3793;48.136;11.536;2024-02-21T08:46:51;1.90;;;1.07;;
7503;SDS011;3793;48.136;11.536;2024-02-21T08:49:17;1.40;;;0.80;;
7503;SDS011;3793;48.136;11.536;2024-02-21T08:51:46;0.87;;;0.87;;
7503;SDS011;3793;48.136;11.536;2024-02-21T08:54:13;1.73;;;1.00;;
7503;SDS011;3793;48.136;11.536;2024-02-21T08:56:40;2.73;;;0.97;;
7503;SDS011;3793;48.136;11.536;2024-02-21T08:59:09;1.63;;;0.70;;
7503;SDS011;3793;48.136;11.536;2024-02-21T09:01:36;0.80;;;0.80;;
7503;SDS011;3793;48.136;11.536;2024-02-21T09:04:03;0.93;;;0.60;;
7503;SDS011;3793;48.136;11.536;2024-02-21T09:06:30;1.23;;;0.80;;
7503;SDS011;3793;48.136;11.536;2024-02-21T09:08:58;0.50;;;0.50;;
7503;SDS011;3793;48.136;11.536;2024-02-21T09:11:25;1.80;;;1.03;;
7503;SDS011;3793;48.136;11.536;2024-02-21T09:13:53;1.00;;;0.87;;
7503;SDS011;3793;48.136;11.536;2024-02-21T09:16:22;1.80;;;0.83;;
7503;SDS011;3793;48.136;11.536;2024-02-21T09:18:51;2.10;;;1.10;;
7503;SDS011;3793;48.136;11.536;2024-02-21T09:21:18;2.00;;;1.00;;
7503;SDS011;3793;48.136;11.536;2024-02-21T09:23:45;1.53;;;0.83;;
7503;SDS011;3793;48.136;11.536;2024-02-21T09:26:12;2.03;;;1.00;;
7503;SDS011;3793;48.136;11.536;2024-02-21T09:28:41;2.73;;;1.00;;
7503;SDS011;3793;48.136;11.536;2024-02-21T09:31:08;2.17;;;1.03;;
7503;SDS011;3793;48.136;11.536;2024-02-21T09:33:37;1.13;;;0.80;;
7503;SDS011;3793;48.136;11.536;2024-02-21T09:36:04;0.97;;;0.83;;
7503;SDS011;3793;48.136;11.536;2024-02-21T09:38:32;1.17;;;0.90;;
7503;SDS011;3793;48.136;11.536;2024-02-21T09:40:59;1.90;;;0.70;;
7503;SDS011;3793;48.136;11.536;2024-02-21T09:43:26;0.70;;;0.70;;
7503;SDS011;3793;48.136;11.536;2024-02-21T09:45:54;2.30;;;0.90;;
7503;SDS011;3793;48.136;11.536;2024-02-21T09:48:25;0.93;;;0.77;;
7503;SDS011;3793;48.136;11.536;2024-02-21T09:50:58;2.37;;;0.70;;
7503;SDS011;3793;48.136;11.536;2024-02-21T09:53:25;1.37;;;0.90;;
7503;SDS011;3793;48.136;11.536;2024-02-21T09:55:53;3.87;;;1.07;;
7503;SDS011;3793;48.136;11.536;2024-02-21T09:58:20;0.93;;;0.67;;
7503;SDS011;3793;48.136;11.536;2024-02-21T10:00:47;2.07;;;0.57;;
7503;SDS011;3793;48.136;11.536;2024-02-21T10:03:14;2.20;;;0.77;;
7503;SDS011;3793;48.136;11.536;2024-02-21T10:05:45;0.70;;;0.67;;
7503;SDS011;3793;48.136;11.536;2024-02-21T10:08:15;2.13;;;0.83;;
7503;SDS011;3793;48.136;11.536;2024-02-21T10:10:42;1.20;;;0.60;;
7503;SDS011;3793;48.136;11.536;2024-02-21T10:13:09;2.43;;;0.80;;
7503;SDS011;3793;48.136;11.536;2024-02-21T10:15:36;2.43;;;0.70;;
7503;SDS011;3793;48.136;11.536;2024-02-21T10:18:03;1.00;;;0.73;;
7503;SDS011;3793;48.136;11.536;2024-02-21T10:20:31;1.60;;;0.90;;
7503;SDS011;3793;48.136;11.536;2024-02-21T10:23:01;1.37;;;0.90;;
7503;SDS011;3793;48.136;11.536;2024-02-21T10:25:34;1.03;;;0.70;;
7503;SDS011;3793;48.136;11.536;2024-02-21T10:28:03;1.20;;;0.70;;
7503;SDS011;3793;48.136;11.536;2024-02-21T10:30:30;1.07;;;0.70;;
7503;SDS011;3793;48.136;11.536;2024-02-21T10:32:57;1.83;;;0.83;;
7503;SDS011;3793;48.136;11.536;2024-02-21T10:35:27;0.63;;;0.63;;
7503;SDS011;3793;48.136;11.536;2024-02-21T10:37:55;1.30;;;0.80;;
7503;SDS011;3793;48.136;11.536;2024-02-21T10:40:23;2.57;;;1.20;;
7503;SDS011;3793;48.136;11.536;2024-02-21T10:42:51;1.43;;;0.80;;
7503;SDS011;3793;48.136;11.536;2024-02-21T10:45:21;0.80;;;0.80;;
7503;SDS011;3793;48.136;11.536;2024-02-21T10:47:50;0.73;;;0.67;;
7503;SDS011;3793;48.136;11.536;2024-02-21T10:50:19;1.13;;;0.50;;
7503;SDS011;3793;48.136;11.536;2024-02-21T10:52:48;1.20;;;0.80;;
7503;SDS011;3793;48.136;11.536;2024-02-21T10:55:16;0.77;;;0.60;;
7503;SDS011;3793;48.136;11.536;2024-02-21T10:57:46;3.23;;;0.90;;
7503;SDS011;3793;48.136;11.536;2024-02-21T11:00:15;1.90;;;0.90;;
7503;SDS011;3793;48.136;11.536;2024-02-21T11:02:44;0.90;;;0.70;;
7503;SDS011;3793;48.136;11.536;2024-02-21T11:05:11;1.17;;;0.67;;
7503;SDS011;3793;48.136;11.536;2024-02-21T11:07:38;1.17;;;0.77;;
7503;SDS011;3793;48.136;11.536;2024-02-21T11:10:19;0.63;;;0.43;;
7503;SDS011;3793;48.136;11.536;2024-02-21T11:12:46;0.80;;;0.67;;
7503;SDS011;3793;48.136;11.536;2024-02-21T11:15:15;1.67;;;0.80;;
7503;SDS011;3793;48.136;11.536;2024-02-21T11:17:42;1.60;;;0.50;;
7503;SDS011;3793;48.136;11.536;2024-02-21T11:20:12;0.57;;;0.50;;
7503;SDS011;3793;48.136;11.536;2024-02-21T11:22:41;1.70;;;0.57;;
7503;SDS011;3793;48.136;11.536;2024-02-21T11:25:08;0.50;;;0.27;;
7503;SDS011;3793;48.136;11.536;2024-02-21T11:27:36;0.70;;;0.60;;
7503;SDS011;3793;48.136;11.536;2024-02-21T11:30:04;0.80;;;0.60;;
7503;SDS011;3793;48.136;11.536;2024-02-21T11:32:33;0.50;;;0.50;;
7503;SDS011;3793;48.136;11.536;2024-02-21T11:35:00;0.70;;;0.40;;
7503;SDS011;3793;48.136;11.536;2024-02-21T11:37:29;2.30;;;0.53;;
7503;SDS011;3793;48.136;11.536;2024-02-21T11:39:56;0.63;;;0.43;;
7503;SDS011;3793;48.136;11.536;2024-02-21T11:42:22;0.40;;;0.40;;
7503;SDS011;3793;48.136;11.536;2024-02-21T11:44:51;1.27;;;0.60;;
7503;SDS011;3793;48.136;11.536;2024-02-21T11:47:18;1.02;;;0.60;;
7503;SDS011;3793;48.136;11.536;2024-02-21T11:49:47;3.03;;;0.57;;
7503;SDS011;3793;48.136;11.536;2024-02-21T11:52:19;0.45;;;0.45;;
7503;SDS011;3793;48.136;11.536;2024-02-21T11:54:47;0.77;;;0.50;;
7503;SDS011;3793;48.136;11.536;2024-02-21T11:57:14;1.10;;;0.50;;
7503;SDS011;3793;48.136;11.536;2024-02-21T11:59:41;0.70;;;0.60;;
7503;SDS011;3793;48.136;11.536;2024-02-21T12:02:08;0.60;;;0.40;;
7503;SDS011;3793;48.136;11.536;2024-02-21T12:04:35;0.73;;;0.57;;
7503;SDS011;3793;48.136;11.536;2024-02-21T12:07:04;1.37;;;0.60;;
7503;SDS011;3793;48.136;11.536;2024-02-21T12:09:31;0.73;;;0.67;;
7503;SDS011;3793;48.136;11.536;2024-02-21T12:11:58;0.90;;;0.80;;
7503;SDS011;3793;48.136;11.536;2024-02-21T12:14:25;0.50;;;0.50;;
7503;SDS011;3793;48.136;11.536;2024-02-21T12:16:53;3.03;;;0.83;;
7503;SDS011;3793;48.136;11.536;2024-02-21T12:19:20;0.77;;;0.60;;
7503;SDS011;3793;48.136;11.536;2024-02-21T12:21:47;1.25;;;0.63;;
7503;SDS011;3793;48.136;11.536;2024-02-21T12:24:17;0.83;;;0.67;;
7503;SDS011;3793;48.136;11.536;2024-02-21T12:26:45;1.70;;;0.45;;
7503;SDS011;3793;48.136;11.536;2024-02-21T12:29:12;1.10;;;0.50;;
7503;SDS011;3793;48.136;11.536;2024-02-21T12:31:39;1.25;;;0.50;;
7503;SDS011;3793;48.136;11.536;2024-02-21T12:34:05;0.82;;;0.40;;
7503;SDS011;3793;48.136;11.536;2024-02-21T12:36:40;1.60;;;0.70;;
7503;SDS011;3793;48.136;11.536;2024-02-21T12:39:12;1.90;;;0.68;;
7503;SDS011;3793;48.136;11.536;2024-02-21T12:41:40;1.00;;;0.52;;
7503;SDS011;3793;48.136;11.536;2024-02-21T12:44:08;0.50;;;0.50;;
7503;SDS011;3793;48.136;11.536;2024-02-21T12:46:37;1.55;;;0.90;;
7503;SDS011;3793;48.136;11.536;2024-02-21T12:49:05;1.05;;;0.80;;
7503;SDS011;3793;48.136;11.536;2024-02-21T12:51:32;1.33;;;0.52;;
7503;SDS011;3793;48.136;11.536;2024-02-21T12:53:59;0.60;;;0.60;;
7503;SDS011;3793;48.136;11.536;2024-02-21T12:56:28;0.75;;;0.50;;
7503;SDS011;3793;48.136;11.536;2024-02-21T12:58:57;1.13;;;0.47;;
7503;SDS011;3793;48.136;11.536;2024-02-21T13:01:25;0.40;;;0.40;;
7503;SDS011;3793;48.136;11.536;2024-02-21T13:03:53;2.05;;;0.75;;
7503;SDS011;3793;48.136;11.536;2024-02-21T13:06:20;0.60;;;0.60;;
7503;SDS011;3793;48.136;11.536;2024-02-21T13:08:47;0.85;;;0.50;;
7503;SDS011;3793;48.136;11.536;2024-02-21T13:11:14;0.75;;;0.55;;
7503;SDS011;3793;48.136;11.536;2024-02-21T13:13:41;0.90;;;0.75;;
7503;SDS011;3793;48.136;11.536;2024-02-21T13:16:10;0.75;;;0.40;;
7503;SDS011;3793;48.136;11.536;2024-02-21T13:18:37;0.47;;;0.47;;
7503;SDS011;3793;48.136;11.536;2024-02-21T13:21:05;0.73;;;0.52;;
7503;SDS011;3793;48.136;11.536;2024-02-21T13:23:33;0.88;;;0.50;;
7503;SDS011;3793;48.136;11.536;2024-02-21T13:25:59;1.27;;;0.60;;
7503;SDS011;3793;48.136;11.536;2024-02-21T13:28:26;0.50;;;0.50;;
7503;SDS011;3793;48.136;11.536;2024-02-21T13:30:53;0.93;;;0.60;;
7503;SDS011;3793;48.136;11.536;2024-02-21T13:33:21;0.65;;;0.40;;
7503;SDS011;3793;48.136;11.536;2024-02-21T13:35:48;0.80;;;0.55;;
7503;SDS011;3793;48.136;11.536;2024-02-21T13:38:15;0.65;;;0.45;;
7503;SDS011;3793;48.136;11.536;2024-02-21T13:40:43;0.98;;;0.90;;
7503;SDS011;3793;48.136;11.536;2024-02-21T13:43:10;0.43;;;0.43;;
7503;SDS011;3793;48.136;11.536;2024-02-21T13:45:37;1.17;;;0.63;;
7503;SDS011;3793;48.136;11.536;2024-02-21T13:48:03;0.50;;;0.50;;
7503;SDS011;3793;48.136;11.536;2024-02-21T13:50:33;0.45;;;0.45;;
7503;SDS011;3793;48.136;11.536;2024-02-21T13:53:07;0.40;;;0.40;;
7503;SDS011;3793;48.136;11.536;2024-02-21T13:55:34;0.50;;;0.50;;
7503;SDS011;3793;48.136;11.536;2024-02-21T13:58:01;0.40;;;0.40;;
7503;SDS011;3793;48.136;11.536;2024-02-21T14:00:28;0.50;;;0.50;;
7503;SDS011;3793;48.136;11.536;2024-02-21T14:02:55;0.70;;;0.70;;
7503;SDS011;3793;48.136;11.536;2024-02-21T14:05:23;1.40;;;0.70;;
7503;SDS011;3793;48.136;11.536;2024-02-21T14:07:51;0.40;;;0.40;;
7503;SDS011;3793;48.136;11.536;2024-02-21T14:10:20;0.90;;;0.68;;
7503;SDS011;3793;48.136;11.536;2024-02-21T14:12:46;0.73;;;0.40;;
7503;SDS011;3793;48.136;11.536;2024-02-21T14:15:14;1.83;;;0.88;;
7503;SDS011;3793;48.136;11.536;2024-02-21T14:17:41;0.75;;;0.75;;
7503;SDS011;3793;48.136;11.536;2024-02-21T14:20:08;1.10;;;0.80;;
7503;SDS011;3793;48.136;11.536;2024-02-21T14:22:35;0.70;;;0.70;;
7503;SDS011;3793;48.136;11.536;2024-02-21T14:25:04;2.67;;;1.00;;
7503;SDS011;3793;48.136;11.536;2024-02-21T14:27:32;0.60;;;0.60;;
7503;SDS011;3793;48.136;11.536;2024-02-21T14:30:01;0.93;;;0.70;;
7503;SDS011;3793;48.136;11.536;2024-02-21T14:32:28;1.05;;;0.60;;
7503;SDS011;3793;48.136;11.536;2024-02-21T14:34:54;0.73;;;0.68;;
7503;SDS011;3793;48.136;11.536;2024-02-21T14:37:21;1.17;;;0.80;;
7503;SDS011;3793;48.136;11.536;2024-02-21T14:39:48;1.83;;;0.88;;
7503;SDS011;3793;48.136;11.536;2024-02-21T14:42:17;3.88;;;1.00;;
7503;SDS011;3793;48.136;11.536;2024-02-21T14:44:43;0.90;;;0.70;;
7503;SDS011;3793;48.136;11.536;2024-02-21T14:47:10;1.95;;;1.30;;
7503;SDS011;3793;48.136;11.536;2024-02-21T14:49:37;1.42;;;0.73;;
7503;SDS011;3793;48.136;11.536;2024-02-21T14:52:04;2.70;;;0.95;;
7503;SDS011;3793;48.136;11.536;2024-02-21T14:54:31;1.35;;;1.10;;
7503;SDS011;3793;48.136;11.536;2024-02-21T14:56:59;1.38;;;0.93;;
7503;SDS011;3793;48.136;11.536;2024-02-21T14:59:27;0.80;;;0.60;;
7503;SDS011;3793;48.136;11.536;2024-02-21T15:01:54;1.38;;;0.80;;